Latest Weather Observations for Archerfield

IDQ60801

Issued at 7:02 am EST Monday 21 August 2017 (issued every 30 minutes, with the page automatically refreshed every 10 minutes)

About weather observations | Map of weather stations | Latest weather observations for QLD | Other Formats
Station Details ID: 040211 Name: ARCHERFIELD AIRPORT Lat: -27.57 Lon: 153.01 Height: 12.5 m
Data from the previous 72 hours. | See also: Recent months at Archerfield
Date/Time
EST
Temp
°C
App
Temp
°C
Dew
Point
°C
Rel
Hum
%
Delta-T
°C
Wind Press
QNH
hPa
Press
MSL
hPa
Rain since
9am
mm
Dir  Spd
km/h
Gust
km/h
Spd
kts
Gust
kts
21/07:00am 7.0 4.9 4.1 82 1.2 S 4 6 2 3 1021.8 1021.8 0.0
21/06:30am 5.6 3.0 3.1 84 1.0 S 6 7 3 4 1021.5 1021.5 0.0
21/06:00am 6.3 4.5 3.3 81 1.3 SSW 2 7 1 4 1020.9 1020.9 0.0
21/05:30am 6.6 4.9 3.8 82 1.2 SSE 2 6 1 3 1020.5 1020.5 0.0
21/05:00am 5.1 2.4 2.5 83 1.1 SW 6 7 3 4 1020.3 1020.3 0.0
21/04:30am 5.8 4.4 3.8 87 0.8 CALM 0 0 0 0 1020.0 1020.0 0.0
21/04:00am 5.8 4.4 3.5 85 1.0 CALM 0 0 0 0 1019.7 1019.7 0.0
21/03:30am 7.0 5.9 5.2 88 0.8 CALM 0 0 0 0 1019.6 1019.6 0.0
21/03:00am 4.5 2.9 2.5 87 0.8 CALM 0 6 0 3 1019.9 1019.9 0.0
21/02:30am 6.2 2.7 3.7 84 1.1 SW 11 13 6 7 1019.8 1019.8 0.0
21/02:00am 7.3 6.3 5.4 88 0.8 CALM 0 0 0 0 1020.0 1020.0 0.0
21/01:30am 7.5 6.4 5.3 86 1.0 CALM 0 0 0 0 1020.3 1020.3 0.0
21/01:00am 6.2 4.8 3.5 83 1.1 CALM 0 0 0 0 1020.6 1020.6 0.0
21/12:30am 7.3 5.1 5.4 88 0.8 SSW 6 7 3 4 1020.9 1020.9 0.0
21/12:00am 7.9 6.9 5.5 85 1.1 CALM 0 0 0 0 1020.9 1020.9 0.0
 
Date/Time
EST
Temp
°C
App
Temp
°C
Dew
Point
°C
Rel
Hum
%
Delta-T
°C
Wind Press
QNH
hPa
Press
MSL
hPa
Rain since
9am
mm
Dir  Spd
km/h
Gust
km/h
Spd
kts
Gust
kts
20/11:30pm 8.8 6.2 6.1 83 1.2 S 9 13 5 7 1020.9 1020.9 0.0
20/11:00pm 7.8 5.5 4.9 82 1.3 S 6 11 3 6 1021.1 1021.1 0.0
20/10:30pm 9.0 6.7 5.9 81 1.4 SSW 7 9 4 5 1020.9 1020.9 0.0
20/10:00pm 9.9 9.1 6.4 79 1.6 CALM 0 2 0 1 1020.9 1020.9 0.0
20/09:30pm 11.1 9.2 6.6 74 2.1 SSW 6 7 3 4 1020.8 1020.8 0.0
20/09:00pm 11.3 9.7 6.4 72 2.3 SW 4 7 2 4 1020.5 1020.5 0.0
20/08:30pm 12.2 11.4 6.7 69 2.6 CALM 0 0 0 0 1020.4 1020.4 0.0
20/08:00pm 12.4 11.6 6.7 68 2.7 CALM 0 0 0 0 1020.3 1020.3 0.0
20/07:30pm 13.5 12.0 6.8 64 3.2 W 4 6 2 3 1020.2 1020.2 0.0
20/07:00pm 13.7 11.8 6.6 62 3.4 NNW 6 6 3 3 1019.8 1019.8 0.0
20/06:30pm 14.7 12.3 6.8 59 3.8 ENE 9 11 5 6 1019.5 1019.5 0.0
20/06:00pm 15.4 12.5 6.4 55 4.4 ENE 11 15 6 8 1019.3 1019.3 0.0
20/05:30pm 16.4 13.3 5.4 48 5.3 ENE 11 17 6 9 1018.8 1018.8 0.0
20/05:00pm 18.3 14.3 4.8 41 6.5 E 15 22 8 12 1018.4 1018.4 0.0
20/04:30pm 19.7 15.7 2.6 32 7.9 E 13 24 7 13 1018.0 1018.0 0.0
20/04:00pm 20.1 16.4 2.5 31 8.2 ENE 11 15 6 8 1017.8 1017.8 0.0
20/03:30pm 20.7 16.8 1.1 27 8.9 E 11 17 6 9 1017.5 1017.5 0.0
20/03:00pm 20.7 16.4 1.1 27 8.9 SE 13 19 7 10 1017.5 1017.5 0.0
20/02:30pm 20.6 15.9 1.0 27 8.9 S 15 24 8 13 1017.5 1017.5 0.0
20/02:00pm 20.8 17.4 1.6 28 8.8 SSE 9 17 5 9 1017.6 1017.6 0.0
20/01:30pm 20.2 15.2 1.6 29 8.5 SSW 17 30 9 16 1018.0 1018.0 0.0
20/01:00pm 20.0 15.0 1.4 29 8.4 S 17 28 9 15 1018.2 1018.2 0.0
20/12:30pm 19.7 13.3 1.2 29 8.3 SSW 24 30 13 16 1018.6 1018.6 0.0
20/12:00pm 19.0 13.4 1.1 30 8.0 SSE 20 28 11 15 1019.0 1019.0 0.0
20/11:30am 18.8 13.2 0.9 30 8.0 SSW 20 35 11 19 1019.6 1019.6 0.0
20/11:00am 18.2 12.7 0.8 31 7.7 SSW 19 32 10 17 1020.1 1020.1 0.0
20/10:30am 17.4 11.8 -0.3 30 7.6 SSW 19 30 10 16 1020.4 1020.4 0.0
20/10:00am 16.6 11.3 -0.6 31 7.3 SW 17 24 9 13 1020.6 1020.6 0.0
20/09:30am 15.4 10.0 -1.2 32 6.9 WSW 17 24 9 13 1020.8 1020.8 0.0
20/09:00am 14.1 8.6 -1.9 33 6.4 WSW 17 24 9 13 1021.0 1021.0 0.0
20/08:30am 12.7 6.8 -2.0 36 5.8 W 19 22 10 12 1021.1 1021.1 0.0
20/08:00am 11.5 6.4 -2.0 39 5.2 WSW 15 20 8 11 1020.9 1020.9 0.0
20/07:30am 9.8 4.3 -2.2 43 4.6 WSW 17 20 9 11 1020.6 1020.6 0.0
20/07:00am 7.8 3.1 -2.0 50 3.6 WSW 13 17 7 9 1020.1 1020.1 0.0
20/06:30am 6.3 1.9 -2.3 54 3.1 WSW 11 15 6 8 1019.7 1019.7 0.0
20/06:00am 6.7 2.7 -2.4 52 3.3 SW 9 13 5 7 1019.6 1019.6 0.0
20/05:30am 6.1 1.7 -2.5 54 3.1 WSW 11 15 6 8 1019.0 1019.0 0.0
20/05:00am 6.5 3.4 -2.9 51 3.4 SW 4 7 2 4 1018.5 1018.5 0.0
20/04:30am 6.9 2.5 -2.8 50 3.5 SW 11 15 6 8 1018.3 1018.3 0.0
20/04:00am 7.3 2.5 -2.4 50 3.6 SW 13 17 7 9 1018.0 1018.0 0.0
20/03:30am 7.6 3.5 -2.7 48 3.8 SW 9 15 5 8 1018.0 1018.0 0.0
20/03:00am 7.2 3.1 -3.1 48 3.7 SW 9 13 5 7 1017.9 1017.9 0.0
20/02:30am 8.3 4.2 -3.2 44 4.2 WSW 9 13 5 7 1017.9 1017.9 0.0
20/02:00am 8.2 3.7 -3.3 44 4.2 WSW 11 15 6 8 1018.0 1018.0 0.0
20/01:30am 8.5 3.6 -3.3 43 4.3 WSW 13 17 7 9 1018.1 1018.1 0.0
20/01:00am 8.5 4.3 -3.7 42 4.4 WSW 9 13 5 7 1018.3 1018.3 0.0
20/12:30am 9.4 4.5 -3.5 40 4.7 WSW 13 19 7 10 1018.3 1018.3 0.0
20/12:00am 9.2 4.3 -3.7 40 4.7 WSW 13 17 7 9 1018.4 1018.4 0.0
 
Date/Time
EST
Temp
°C
App
Temp
°C
Dew
Point
°C
Rel
Hum
%
Delta-T
°C
Wind Press
QNH
hPa
Press
MSL
hPa
Rain since
9am
mm
Dir  Spd
km/h
Gust
km/h
Spd
kts
Gust
kts
19/11:30pm 9.5 5.2 -4.8 36 5.1 W 9 13 5 7 1018.4 1018.4 0.0
19/11:00pm 9.5 4.8 -5.2 35 5.2 WSW 11 13 6 7 1018.7 1018.7 0.0
19/10:30pm 9.7 4.6 -5.0 35 5.2 WSW 13 17 7 9 1018.7 1018.7 0.0
19/10:00pm 9.5 4.0 -5.6 34 5.3 W 15 17 8 9 1018.5 1018.5 0.0
19/09:30pm 10.7 5.5 -6.1 30 5.9 W 13 17 7 9 1018.3 1018.3 0.0
19/09:00pm 11.7 6.5 -6.2 28 6.3 WSW 13 17 7 9 1018.1 1018.1 0.0
19/08:30pm 12.2 7.0 -5.7 28 6.5 WSW 13 17 7 9 1017.8 1017.8 0.0
19/08:00pm 13.3 7.8 -5.3 27 6.8 WSW 15 20 8 11 1017.2 1017.2 0.0
19/07:30pm 13.9 8.5 -4.8 27 7.0 WSW 15 20 8 11 1016.9 1016.9 0.0
19/07:00pm 14.9 8.5 -4.9 25 7.5 WSW 20 26 11 14 1016.4 1016.4 0.0
19/06:30pm 15.8 9.6 -5.3 23 8.0 WSW 19 26 10 14 1016.2 1016.2 0.0
19/06:00pm 16.2 9.7 -6.1 21 8.3 WSW 20 26 11 14 1015.5 1015.5 0.0
19/05:30pm 16.9 9.2 -6.2 20 8.7 WSW 26 37 14 20 1015.0 1015.0 0.0
19/05:00pm 17.8 10.1 -6.1 19 9.1 WSW 26 37 14 20 1014.4 1014.4 0.0
19/04:30pm 18.6 9.5 -6.9 17 9.6 WSW 33 44 18 24 1014.0 1014.0 0.0
19/04:01pm 19.1 10.3 -6.5 17 9.8 WSW 32 52 17 28 1013.6 1013.6 0.0
19/04:00pm 19.2 10.4 -6.4 17 9.8 WSW 32 44 17 24 1013.6 1013.6 0.0
19/03:30pm 19.4 9.6 -6.2 17 9.9 WSW 37 56 20 30 1013.5 1013.5 0.0
19/03:28pm 19.3 9.5 -6.3 17 9.9 WSW 37 56 20 30 1013.6 1013.6 0.0
19/03:00pm 19.5 10.2 -5.4 18 9.8 WSW 35 52 19 28 1013.5 1013.5 0.0
19/02:36pm 19.4 10.7 -5.5 18 9.8 WSW 32 54 17 29 1013.3 1013.3 0.0
19/02:30pm 20.3 12.1 -4.0 19 9.9 WSW 30 46 16 25 1013.4 1013.4 0.0
19/02:11pm 19.9 10.9 -5.8 17 10.1 WSW 33 52 18 28 1013.4 1013.4 0.0
19/02:00pm 19.6 10.8 -6.1 17 10.0 WSW 32 48 17 26 1013.4 1013.4 0.0
19/01:34pm 19.8 9.6 -6.7 16 10.2 WSW 39 59 21 32 1013.4 1013.4 0.0
19/01:30pm 20.2 10.9 -5.6 17 10.2 WSW 35 50 19 27 1013.5 1013.5 0.0
19/01:00pm 19.8 10.8 -5.9 17 10.1 WSW 33 54 18 29 1013.8 1013.8 0.0
19/12:45pm 19.4 9.8 -4.8 19 9.6 SW 37 57 20 31 1014.1 1014.1 0.0
19/12:44pm 19.3 9.2 -5.6 18 9.7 SW 39 57 21 31 1014.1 1014.1 0.0
19/12:36pm 19.7 9.7 -5.3 18 9.9 WSW 39 57 21 31 1014.2 1014.2 0.0
19/12:30pm 19.4 9.7 -5.5 18 9.8 WSW 37 54 20 29 1014.3 1014.3 0.0
19/12:07pm 19.5 10.3 -4.7 19 9.7 WSW 35 54 19 29 1014.6 1014.6 0.0
19/12:00pm 19.1 9.4 -5.7 18 9.7 WSW 37 46 20 25 1014.7 1014.7 0.0
19/11:30am 18.6 9.4 -4.8 20 9.2 WSW 35 56 19 30 1015.2 1015.2 0.0
19/11:03am 18.8 8.1 -4.0 21 9.2 WSW 43 61 23 33 1015.5 1015.5 0.0
19/11:00am 18.4 7.0 -5.6 19 9.3 WSW 46 61 25 33 1015.5 1015.5 0.0
19/10:31am 18.0 7.4 -6.6 18 9.3 WSW 41 61 22 33 1015.7 1015.7 0.0
19/10:30am 18.3 8.2 -5.7 19 9.3 WSW 39 54 21 29 1015.8 1015.8 0.0
19/10:00am 17.7 6.9 -4.9 21 8.8 WSW 43 61 23 33 1016.3 1016.3 0.0
19/09:31am 17.1 7.9 -4.8 22 8.5 WSW 35 54 19 29 1016.4 1016.4 0.0
19/09:30am 16.8 8.0 -4.4 23 8.3 WSW 33 46 18 25 1016.5 1016.5 0.0
19/09:00am 16.4 9.1 -3.1 26 7.8 W 26 37 14 20 1017.0 1017.0 0.0
19/08:30am 15.5 9.5 -1.5 31 7.0 W 20 32 11 17 1017.3 1017.3 0.0
19/08:00am 13.9 7.5 -1.7 34 6.3 W 22 28 12 15 1017.2 1017.2 0.0
19/07:30am 13.0 6.3 -1.3 37 5.8 W 24 30 13 16 1017.1 1017.1 0.0
19/07:00am 11.8 5.8 -1.3 40 5.2 W 20 26 11 14 1016.9 1016.9 0.0
19/06:30am 10.6 4.6 -1.4 43 4.7 W 20 24 11 13 1016.8 1016.8 0.0
19/06:00am 11.0 5.0 -1.7 41 4.9 W 20 26 11 14 1016.5 1016.5 0.0
19/05:30am 8.6 3.3 -0.7 52 3.6 W 17 20 9 11 1016.2 1016.2 0.0
19/05:00am 10.1 6.3 -1.0 46 4.4 W 9 15 5 8 1016.1 1016.1 0.0
19/04:30am 10.8 6.2 -1.3 43 4.8 WSW 13 20 7 11 1015.7 1015.7 0.0
19/04:00am 11.8 6.8 -1.0 41 5.1 WSW 15 22 8 12 1015.7 1015.7 0.0
19/03:30am 11.1 6.5 -1.0 43 4.8 WNW 13 24 7 13 1015.7 1015.7 0.0
19/03:00am 10.0 5.4 -0.8 47 4.3 NW 13 15 7 8 1015.7 1015.7 0.0
19/02:30am 9.0 5.2 -1.1 49 3.9 N 9 11 5 6 1015.9 1015.9 0.0
19/02:00am 11.6 8.4 -0.2 44 4.8 N 6 7 3 4 1016.0 1016.0 0.0
19/01:30am 11.1 6.9 -0.7 44 4.7 NW 11 13 6 7 1016.1 1016.1 0.0
19/01:00am 11.5 7.0 -0.3 44 4.8 WNW 13 15 7 8 1016.2 1016.2 0.0
19/12:30am 11.6 7.5 -0.5 43 4.9 WNW 11 13 6 7 1016.2 1016.2 0.0
19/12:00am 12.2 8.4 -1.0 40 5.3 WNW 9 9 5 5 1016.2 1016.2 0.0
 
Date/Time
EST
Temp
°C
App
Temp
°C
Dew
Point
°C
Rel
Hum
%
Delta-T
°C
Wind Press
QNH
hPa
Press
MSL
hPa
Rain since
9am
mm
Dir  Spd
km/h
Gust
km/h
Spd
kts
Gust
kts
18/11:30pm 14.1 10.6 -1.5 34 6.3 SW 7 11 4 6 1016.2 1016.2 0.0
18/11:00pm 14.6 10.0 -1.1 34 6.4 WSW 13 20 7 11 1016.1 1016.1 0.0
18/10:30pm 15.1 9.8 -0.6 34 6.5 WSW 17 20 9 11 1015.9 1015.9 0.0
18/10:00pm 14.7 9.7 -1.0 34 6.5 WSW 15 17 8 9 1015.8 1015.8 0.0
18/09:30pm 15.3 9.9 -1.3 32 6.8 WSW 17 19 9 10 1015.7 1015.7 0.0
18/09:00pm 15.6 10.6 -1.4 31 7.0 WSW 15 19 8 10 1015.5 1015.5 0.0
18/08:30pm 16.6 11.5 -2.0 28 7.6 WSW 15 20 8 11 1015.3 1015.3 0.0
18/08:00pm 17.7 12.1 -2.5 25 8.3 WSW 17 22 9 12 1015.0 1015.0 0.0
18/07:30pm 19.2 12.6 -3.0 22 9.2 WSW 22 30 12 16 1014.7 1014.7 0.0
18/07:00pm 20.1 12.3 -3.5 20 9.7 W 28 39 15 21 1014.2 1014.2 0.0
18/06:30pm 20.6 12.5 -3.1 20 9.9 W 30 41 16 22 1013.7 1013.7 0.0
18/06:00pm 20.8 13.1 -3.0 20 10.0 W 28 39 15 21 1013.2 1013.2 0.0
18/05:30pm 21.5 12.9 -3.8 18 10.5 W 32 46 17 25 1012.8 1012.7 0.0
18/05:08pm 21.9 12.8 -3.5 18 10.6 W 35 54 19 29 1012.5 1012.4 0.0
18/05:00pm 22.5 12.5 -4.5 16 11.2 W 39 56 21 30 1012.3 1012.2 0.0
18/04:30pm 23.3 13.7 -4.8 15 11.6 W 37 56 20 30 1011.8 1011.7 0.0
18/04:04pm 23.9 14.2 -5.2 14 12.0 W 37 56 20 30 1011.5 1011.4 0.0
18/04:00pm 24.0 14.1 -4.2 15 11.9 W 39 56 21 30 1011.5 1011.4 0.0
18/03:44pm 24.3 14.3 -4.9 14 12.2 W 39 57 21 31 1011.3 1011.2 0.0
18/03:30pm 24.5 14.5 -4.7 14 12.2 W 39 56 21 30 1011.1 1011.0 0.0
18/03:06pm 25.2 16.0 -4.2 14 12.5 W 35 57 19 31 1011.1 1011.0 0.0
18/03:00pm 25.0 15.4 -4.3 14 12.5 W 37 50 20 27 1011.0 1010.9 0.0
18/02:30pm 25.2 14.9 -4.2 14 12.5 W 41 54 22 29 1011.1 1011.0 0.0
18/02:07pm 25.0 15.2 -3.4 15 12.3 W 39 57 21 31 1011.3 1011.2 0.0
18/02:00pm 25.4 15.2 -3.1 15 12.4 W 41 57 22 31 1011.3 1011.2 0.0
18/01:30pm 25.3 14.6 -4.1 14 12.6 W 43 61 23 33 1011.5 1011.4 0.0
18/01:20pm 25.3 15.4 -4.1 14 12.6 W 39 63 21 34 1011.5 1011.4 0.0
18/01:00pm 25.2 15.8 -3.2 15 12.3 W 37 52 20 28 1011.8 1011.7 0.0
18/12:41pm 25.1 16.7 -2.5 16 12.1 WSW 32 50 17 27 1012.1 1012.0 0.0
18/12:30pm 24.7 15.6 -3.6 15 12.1 W 35 50 19 27 1012.3 1012.2 0.0
18/12:07pm 24.8 16.8 -2.7 16 12.0 W 30 50 16 27 1012.7 1012.6 0.0
18/12:00pm 24.6 16.7 -1.3 18 11.6 WSW 30 43 16 23 1012.9 1012.9 0.0
18/11:30am 24.4 16.0 -2.2 17 11.7 W 32 50 17 27 1013.4 1013.4 0.0
18/11:12am 24.3 15.3 -3.1 16 11.8 W 35 56 19 30 1013.6 1013.6 0.0
18/11:00am 24.2 15.8 -0.9 19 11.3 WSW 33 48 18 26 1013.8 1013.8 0.0
18/10:30am 23.5 16.2 -0.1 21 10.7 WNW 28 39 15 21 1014.3 1014.3 0.0
18/10:00am 22.5 15.9 -0.3 22 10.2 W 24 30 13 16 1014.8 1014.8 0.0
18/09:30am 21.9 15.7 -0.1 23 9.9 W 22 32 12 17 1015.1 1015.1 0.0
18/09:00am 20.9 15.3 1.2 27 9.0 W 20 30 11 16 1015.3 1015.3 0.0
18/08:30am 19.9 14.4 1.8 30 8.3 W 20 28 11 15 1015.4 1015.4 0.0
18/08:00am 18.6 14.9 2.4 34 7.4 W 11 17 6 9 1015.2 1015.2 0.0
18/07:30am 16.8 13.3 3.5 41 6.1 W 11 13 6 7 1014.9 1014.9 0.0

Other Formats:

Comma delimited format used in spreadsheet applications
http://www.bom.gov.au/fwo/IDQ60801/IDQ60801.94575.axf

JavaScript Object Notation format (JSON) in row-major order
http://www.bom.gov.au/fwo/IDQ60801/IDQ60801.94575.json